createdAt,value
2023-04-14T00:01:54.288Z,6.54
2023-04-14T00:04:20.839Z,6.41
2023-04-14T00:06:47.301Z,6.32
2023-04-14T00:09:13.685Z,6.22
2023-04-14T00:11:40.063Z,6.15
2023-04-14T00:14:06.995Z,6.01
2023-04-14T00:16:33.442Z,5.80
2023-04-14T00:19:00.140Z,5.69
2023-04-14T00:21:26.980Z,5.73
2023-04-14T00:23:53.360Z,5.63
2023-04-14T00:26:19.760Z,5.60
2023-04-14T00:28:46.629Z,5.56
2023-04-14T00:31:15.698Z,5.54
2023-04-14T00:33:42.076Z,5.50
2023-04-14T00:36:08.502Z,5.43
2023-04-14T00:38:34.878Z,5.33
2023-04-14T00:41:01.445Z,5.28
2023-04-14T00:43:27.847Z,5.25
2023-04-14T00:45:54.473Z,5.24
2023-04-14T00:48:21.031Z,5.21
2023-04-14T00:50:47.946Z,5.24
2023-04-14T00:53:14.686Z,5.24
2023-04-14T00:55:41.511Z,5.18
2023-04-14T00:58:08.709Z,5.18
2023-04-14T01:00:36.076Z,5.20
2023-04-14T01:03:02.637Z,5.25
2023-04-14T01:05:29.250Z,5.24
2023-04-14T01:07:55.785Z,5.17
2023-04-14T01:10:29.299Z,5.15
2023-04-14T01:13:20.825Z,5.06
2023-04-14T01:15:50.153Z,5.02
2023-04-14T01:18:38.526Z,4.93
2023-04-14T01:21:19.926Z,4.90
2023-04-14T01:24:25.943Z,4.90
2023-04-14T01:27:04.664Z,4.82
2023-04-14T01:29:50.382Z,4.75
2023-04-14T01:32:21.974Z,4.73
2023-04-14T01:34:56.292Z,4.61
2023-04-14T01:37:31.992Z,4.60
2023-04-14T01:40:11.256Z,4.60
2023-04-14T01:42:40.178Z,4.77
2023-04-14T01:45:11.748Z,4.88
2023-04-14T01:47:41.860Z,4.89
2023-04-14T01:50:11.210Z,4.93
2023-04-14T01:52:39.246Z,4.95
2023-04-14T01:55:07.684Z,4.95
2023-04-14T01:57:36.600Z,4.88
2023-04-14T02:00:04.902Z,4.79
2023-04-14T02:02:42.722Z,4.72
2023-04-14T02:05:09.937Z,4.73
2023-04-14T02:07:37.044Z,4.69
2023-04-14T02:10:06.459Z,4.70
2023-04-14T02:12:34.024Z,4.62
2023-04-14T02:15:01.732Z,4.67
2023-04-14T02:17:30.225Z,4.60
2023-04-14T02:19:59.916Z,4.58
2023-04-14T02:22:26.537Z,4.59
2023-04-14T02:24:55.078Z,4.62
2023-04-14T02:27:33.520Z,4.58
2023-04-14T02:30:08.402Z,4.51
2023-04-14T02:32:38.885Z,4.42
2023-04-14T02:35:12.031Z,4.38
2023-04-14T02:37:43.701Z,4.37
2023-04-14T02:40:17.278Z,4.33
2023-04-14T02:42:48.064Z,4.34
2023-04-14T02:45:21.140Z,4.25
2023-04-14T02:47:54.699Z,4.18
2023-04-14T02:50:22.691Z,4.07
2023-04-14T02:53:03.104Z,3.95
2023-04-14T02:55:34.754Z,3.84
2023-04-14T02:58:01.575Z,3.84
2023-04-14T03:00:31.002Z,3.80
2023-04-14T03:02:59.665Z,3.75
2023-04-14T03:05:26.947Z,3.78
2023-04-14T03:08:04.070Z,3.81
2023-04-14T03:10:32.494Z,3.81
2023-04-14T03:13:01.840Z,3.81
2023-04-14T03:15:29.329Z,3.83
2023-04-14T03:17:57.251Z,3.88
2023-04-14T03:20:26.706Z,3.89
2023-04-14T03:23:05.177Z,3.90
2023-04-14T03:25:40.875Z,3.92
2023-04-14T03:28:15.896Z,3.83
2023-04-14T03:30:47.439Z,3.81
2023-04-14T03:33:19.747Z,3.83
2023-04-14T03:35:47.529Z,3.81
2023-04-14T03:38:16.120Z,3.76
2023-04-14T03:40:47.576Z,3.78
2023-04-14T03:43:22.321Z,3.78
2023-04-14T03:45:53.294Z,3.81
2023-04-14T03:48:21.252Z,3.76
2023-04-14T03:50:52.551Z,3.76
2023-04-14T03:53:21.590Z,3.80
2023-04-14T03:55:50.828Z,3.70
2023-04-14T03:58:18.682Z,3.64
2023-04-14T04:00:47.509Z,3.61
2023-04-14T04:03:15.558Z,3.61
2023-04-14T04:05:43.862Z,3.65
2023-04-14T04:08:11.377Z,3.63
2023-04-14T04:10:38.638Z,3.56
2023-04-14T04:13:17.084Z,3.53
2023-04-14T04:15:47.079Z,3.50
2023-04-14T04:18:16.504Z,3.47
2023-04-14T04:20:46.053Z,3.44
2023-04-14T04:23:16.549Z,3.30
2023-04-14T04:25:43.760Z,3.28
2023-04-14T04:28:24.135Z,3.26
2023-04-14T04:30:52.568Z,3.28
2023-04-14T04:33:19.909Z,3.24
2023-04-14T04:35:47.765Z,3.20
2023-04-14T04:38:14.226Z,3.24
2023-04-14T04:40:44.020Z,3.20
2023-04-14T04:43:19.503Z,3.16
2023-04-14T04:45:58.321Z,3.20
2023-04-14T04:48:25.896Z,3.16
2023-04-14T04:50:52.259Z,3.07
2023-04-14T04:53:18.724Z,3.00
2023-04-14T04:55:45.260Z,2.91
2023-04-14T04:58:11.575Z,2.86
2023-04-14T05:00:37.925Z,2.89
2023-04-14T05:03:04.403Z,2.83
2023-04-14T05:05:35.482Z,2.82
2023-04-14T05:08:02.140Z,2.86
2023-04-14T05:10:28.754Z,2.84
2023-04-14T05:12:55.137Z,2.80
2023-04-14T05:15:21.472Z,2.75
2023-04-14T05:17:47.863Z,2.73
2023-04-14T05:20:14.230Z,2.64
2023-04-14T05:22:40.759Z,2.61
2023-04-14T05:25:07.889Z,2.61
2023-04-14T05:27:34.274Z,2.62
2023-04-14T05:30:00.703Z,2.65
2023-04-14T05:32:29.001Z,2.71
2023-04-14T05:34:56.020Z,2.75
2023-04-14T05:37:22.418Z,2.84
2023-04-14T05:39:48.767Z,2.96
2023-04-14T05:42:15.378Z,3.11
2023-04-14T05:44:41.706Z,3.19
2023-04-14T05:47:08.125Z,3.31
2023-04-14T05:49:36.039Z,3.40
2023-04-14T05:52:02.472Z,3.51
2023-04-14T05:54:28.822Z,3.62
2023-04-14T05:56:56.270Z,3.76
2023-04-14T05:59:22.613Z,3.90
2023-04-14T06:01:49.109Z,4.03
2023-04-14T06:04:15.765Z,4.16
2023-04-14T06:06:42.260Z,4.30
2023-04-14T06:09:08.621Z,4.40
2023-04-14T06:11:34.969Z,4.51
2023-04-14T06:14:02.681Z,4.61
2023-04-14T06:16:29.374Z,4.76
2023-04-14T06:18:55.759Z,4.88
2023-04-14T06:21:22.122Z,5.02
2023-04-14T06:23:48.500Z,5.16
2023-04-14T06:26:14.959Z,5.32
2023-04-14T06:28:43.715Z,5.46
2023-04-14T06:31:10.349Z,5.60
2023-04-14T06:33:36.694Z,5.82
2023-04-14T06:36:03.259Z,6.08
2023-04-14T06:38:29.639Z,6.33
2023-04-14T06:40:56.001Z,6.50
2023-04-14T06:43:22.407Z,6.66
2023-04-14T06:45:50.616Z,6.84
2023-04-14T06:48:17.044Z,7.03
2023-04-14T06:50:44.449Z,7.20
2023-04-14T06:53:11.004Z,7.34
2023-04-14T06:55:41.018Z,7.49
2023-04-14T06:58:07.417Z,7.63
2023-04-14T07:00:33.881Z,7.83
2023-04-14T07:03:00.447Z,7.98
2023-04-14T07:05:27.093Z,8.06
2023-04-14T07:07:53.453Z,8.24
2023-04-14T07:10:19.849Z,8.35
2023-04-14T07:12:46.194Z,8.42
2023-04-14T07:15:14.165Z,8.50
2023-04-14T07:17:40.555Z,8.55
2023-04-14T07:20:07.814Z,8.75
2023-04-14T07:22:34.411Z,8.87
2023-04-14T07:25:00.762Z,9.04
2023-04-14T07:27:28.590Z,9.08
2023-04-14T07:29:54.925Z,9.21
2023-04-14T07:32:21.402Z,9.36
2023-04-14T07:34:47.924Z,9.56
2023-04-14T07:37:16.385Z,9.75
2023-04-14T07:39:42.737Z,9.83
2023-04-14T07:42:09.064Z,9.84
2023-04-14T07:44:35.453Z,10.08
2023-04-14T07:47:01.899Z,10.23
2023-04-14T07:49:28.306Z,10.36
2023-04-14T07:51:54.719Z,10.56
2023-04-14T07:54:21.687Z,10.70
2023-04-14T07:56:48.669Z,10.80
2023-04-14T07:59:15.565Z,10.80
2023-04-14T08:01:42.486Z,10.92
2023-04-14T08:04:09.164Z,10.96
2023-04-14T08:06:35.636Z,11.07
2023-04-14T08:09:02.420Z,11.14
2023-04-14T08:11:29.140Z,11.22
2023-04-14T08:13:55.678Z,11.29
2023-04-14T08:16:22.518Z,11.40
2023-04-14T08:18:49.272Z,11.52
2023-04-14T08:21:16.520Z,11.64
2023-04-14T08:23:42.996Z,11.74
2023-04-14T08:26:09.442Z,11.78
2023-04-14T08:28:36.982Z,11.77
2023-04-14T08:31:03.416Z,11.97
2023-04-14T08:33:29.828Z,12.01
2023-04-14T08:35:59.893Z,12.16
2023-04-14T08:38:27.548Z,12.28
2023-04-14T08:40:56.309Z,12.40
2023-04-14T08:43:23.277Z,12.48
2023-04-14T08:45:51.704Z,12.67
2023-04-14T08:48:20.494Z,12.61
2023-04-14T08:51:02.278Z,12.58
2023-04-14T08:53:31.695Z,12.66
2023-04-14T08:56:02.506Z,12.77
2023-04-14T08:58:29.240Z,12.74
2023-04-14T09:00:55.965Z,12.94
2023-04-14T09:03:27.141Z,12.90
2023-04-14T09:05:54.152Z,12.85
2023-04-14T09:08:21.004Z,12.67
2023-04-14T09:10:47.363Z,12.92
2023-04-14T09:13:16.636Z,13.09
2023-04-14T09:15:43.681Z,13.31
2023-04-14T09:18:11.357Z,13.58
2023-04-14T09:20:40.751Z,13.73
2023-04-14T09:23:11.986Z,13.91
2023-04-14T09:25:39.410Z,13.91
2023-04-14T09:28:05.847Z,14.13
2023-04-14T09:30:32.927Z,14.32
2023-04-14T09:32:59.417Z,14.46
2023-04-14T09:35:49.002Z,14.49
2023-04-14T09:38:30.709Z,14.32
2023-04-14T09:40:57.385Z,14.41
2023-04-14T09:43:25.467Z,14.47
2023-04-14T09:45:51.900Z,14.40
2023-04-14T09:48:19.385Z,14.33
2023-04-14T09:51:22.166Z,14.29
2023-04-14T09:53:48.738Z,14.51
2023-04-14T09:56:15.739Z,14.93
2023-04-14T09:58:43.833Z,15.07
2023-04-14T10:01:17.771Z,15.13
2023-04-14T10:03:46.682Z,15.44
2023-04-14T10:06:13.413Z,15.30
2023-04-14T10:08:41.723Z,15.39
2023-04-14T10:11:21.146Z,15.44
2023-04-14T10:13:49.340Z,15.50
2023-04-14T10:16:16.098Z,15.35
2023-04-14T10:18:43.012Z,15.13
2023-04-14T10:21:10.378Z,15.08
2023-04-14T10:23:39.152Z,14.90
2023-04-14T10:26:07.769Z,15.00
2023-04-14T10:28:40.872Z,14.85
2023-04-14T10:31:13.217Z,14.49
2023-04-14T10:33:39.689Z,14.22
2023-04-14T10:36:06.547Z,14.25
2023-04-14T10:38:40.656Z,14.36
2023-04-14T10:41:07.642Z,14.18
2023-04-14T10:43:36.572Z,14.09
2023-04-14T10:46:04.678Z,14.28
2023-04-14T10:48:41.296Z,14.44
2023-04-14T10:51:09.741Z,14.46
2023-04-14T10:53:48.514Z,14.78
2023-04-14T10:56:14.915Z,15.02
2023-04-14T10:58:42.025Z,15.22
2023-04-14T11:01:25.897Z,15.54
2023-04-14T11:03:54.780Z,15.73
2023-04-14T11:06:48.378Z,15.87
2023-04-14T11:09:24.302Z,15.98
2023-04-14T11:11:51.563Z,16.07
2023-04-14T11:14:28.138Z,16.25
2023-04-14T11:17:05.281Z,16.32
2023-04-14T11:19:32.996Z,16.22
2023-04-14T11:21:59.374Z,16.53
2023-04-14T11:24:26.567Z,16.44
2023-04-14T11:26:54.617Z,16.09
2023-04-14T11:29:21.913Z,16.17
2023-04-14T11:32:05.340Z,16.04
2023-04-14T11:34:32.828Z,15.91
2023-04-14T11:37:02.870Z,16.33
2023-04-14T11:39:29.851Z,16.32
2023-04-14T11:41:59.980Z,16.51
2023-04-14T11:44:26.354Z,16.93
2023-04-14T11:46:53.659Z,16.99
2023-04-14T11:49:31.972Z,17.07
2023-04-14T11:52:04.611Z,17.25
2023-04-14T11:54:39.840Z,16.95
2023-04-14T11:57:13.538Z,16.84
2023-04-14T11:59:47.480Z,16.56
2023-04-14T12:02:22.020Z,16.50
2023-04-14T12:04:52.021Z,16.52
2023-04-14T12:07:20.280Z,16.74
2023-04-14T12:09:48.860Z,17.03
2023-04-14T12:12:17.308Z,17.18
2023-04-14T12:14:46.033Z,17.50
2023-04-14T12:17:15.149Z,17.71
2023-04-14T12:19:42.279Z,17.70
2023-04-14T12:22:09.489Z,17.18
2023-04-14T12:24:43.349Z,17.01
2023-04-14T12:27:10.052Z,17.04
2023-04-14T12:29:37.113Z,17.23
2023-04-14T12:32:13.636Z,17.46
2023-04-14T12:34:40.408Z,17.47
2023-04-14T12:37:08.461Z,17.50
2023-04-14T12:39:50.766Z,17.91
2023-04-14T12:42:18.088Z,17.58
2023-04-14T12:44:59.211Z,17.40
2023-04-14T12:47:29.276Z,17.30
2023-04-14T12:49:56.857Z,17.17
2023-04-14T12:52:39.827Z,17.10
2023-04-14T12:55:07.934Z,17.19
2023-04-14T12:57:34.953Z,16.91
2023-04-14T13:00:02.078Z,17.00
2023-04-14T13:02:30.207Z,17.07
2023-04-14T13:04:57.000Z,16.88
2023-04-14T13:07:23.575Z,17.14
2023-04-14T13:09:51.493Z,16.71
2023-04-14T13:12:18.486Z,17.16
2023-04-14T13:14:44.908Z,17.12
2023-04-14T13:17:11.293Z,17.29
2023-04-14T13:19:38.030Z,17.29
2023-04-14T13:22:04.443Z,17.05
2023-04-14T13:24:30.826Z,17.32
2023-04-14T13:26:57.317Z,17.52
2023-04-14T13:29:23.653Z,17.48
2023-04-14T13:31:50.022Z,17.59
2023-04-14T13:34:16.571Z,17.51
2023-04-14T13:36:42.886Z,17.10
2023-04-14T13:39:09.274Z,17.12
2023-04-14T13:41:35.617Z,16.57
2023-04-14T13:44:04.166Z,16.62
2023-04-14T13:46:34.457Z,16.69
2023-04-14T13:49:06.922Z,16.67
2023-04-14T13:51:33.516Z,16.53
2023-04-14T13:53:59.944Z,16.50
2023-04-14T13:56:27.123Z,16.43
2023-04-14T13:58:54.252Z,16.34
2023-04-14T14:01:21.056Z,16.23
2023-04-14T14:03:47.890Z,16.11
2023-04-14T14:06:14.534Z,15.89
2023-04-14T14:08:42.137Z,15.66
2023-04-14T14:11:09.513Z,15.46
2023-04-14T14:13:36.946Z,15.26
2023-04-14T14:16:03.757Z,15.12
2023-04-14T14:18:30.180Z,15.13
2023-04-14T14:20:56.572Z,15.37
2023-04-14T14:23:23.267Z,15.53
2023-04-14T14:25:50.140Z,15.44
2023-04-14T14:28:17.139Z,15.58
2023-04-14T14:30:43.688Z,15.31
2023-04-14T14:33:10.653Z,15.35
2023-04-14T14:35:37.718Z,15.37
2023-04-14T14:38:04.067Z,15.50
2023-04-14T14:40:30.821Z,15.44
2023-04-14T14:42:57.339Z,15.48
2023-04-14T14:45:30.587Z,15.44
2023-04-14T14:47:58.019Z,15.44
2023-04-14T14:50:24.398Z,15.10
2023-04-14T14:52:50.721Z,15.07
2023-04-14T14:55:17.201Z,14.93
2023-04-14T14:57:43.536Z,14.88
2023-04-14T15:00:10.851Z,14.88
2023-04-14T15:02:38.560Z,14.79
2023-04-14T15:05:07.111Z,14.68
2023-04-14T15:07:33.817Z,14.53
2023-04-14T15:10:01.457Z,14.57
2023-04-14T15:12:27.824Z,14.64
2023-04-14T15:14:54.152Z,14.68
2023-04-14T15:17:20.488Z,14.69
2023-04-14T15:19:47.087Z,14.86
2023-04-14T15:22:14.789Z,14.96
2023-04-14T15:24:41.137Z,15.26
2023-04-14T15:27:07.487Z,15.44
2023-04-14T15:29:33.838Z,15.74
2023-04-14T15:32:00.376Z,15.79
2023-04-14T15:34:27.667Z,15.62
2023-04-14T15:36:54.111Z,15.56
2023-04-14T15:39:20.774Z,15.43
2023-04-14T15:41:48.980Z,15.39
2023-04-14T15:44:15.385Z,15.45
2023-04-14T15:46:41.710Z,15.30
2023-04-14T15:49:08.029Z,15.39
2023-04-14T15:51:34.525Z,15.31
2023-04-14T15:54:02.043Z,15.23
2023-04-14T15:56:28.963Z,15.19
2023-04-14T15:58:55.552Z,15.14
2023-04-14T16:01:22.075Z,15.11
2023-04-14T16:03:50.535Z,15.14
2023-04-14T16:06:18.891Z,15.17
2023-04-14T16:08:45.314Z,15.18
2023-04-14T16:11:16.086Z,14.92
2023-04-14T16:13:44.052Z,14.84
2023-04-14T16:16:13.020Z,14.64
2023-04-14T16:18:39.442Z,14.64
2023-04-14T16:21:05.920Z,14.59
2023-04-14T16:23:32.259Z,14.38
2023-04-14T16:25:58.638Z,14.33
2023-04-14T16:28:25.681Z,14.26
2023-04-14T16:30:52.081Z,14.24
2023-04-14T16:33:18.515Z,14.26
2023-04-14T16:35:44.913Z,14.17
2023-04-14T16:38:11.276Z,14.11
2023-04-14T16:40:37.897Z,14.03
2023-04-14T16:43:04.396Z,14.10
2023-04-14T16:45:31.940Z,14.06
2023-04-14T16:47:58.575Z,13.86
2023-04-14T16:50:24.961Z,13.85
2023-04-14T16:52:52.271Z,13.77
2023-04-14T16:55:18.787Z,13.77
2023-04-14T16:57:45.177Z,13.75
2023-04-14T17:00:15.064Z,13.66
2023-04-14T17:02:41.813Z,13.70
2023-04-14T17:05:10.384Z,13.61
2023-04-14T17:07:37.040Z,13.65
2023-04-14T17:10:03.535Z,13.60
2023-04-14T17:12:29.896Z,13.61
2023-04-14T17:14:56.291Z,13.56
2023-04-14T17:17:22.775Z,13.57
2023-04-14T17:19:49.338Z,13.62
2023-04-14T17:22:15.720Z,13.71
2023-04-14T17:24:42.743Z,13.71
2023-04-14T17:27:09.124Z,13.77
2023-04-14T17:29:35.675Z,13.72
2023-04-14T17:32:02.285Z,13.72
2023-04-14T17:34:29.549Z,13.76
2023-04-14T17:36:56.448Z,13.67
2023-04-14T17:39:26.569Z,13.73
2023-04-14T17:42:00.488Z,13.77
2023-04-14T17:44:32.342Z,13.80
2023-04-14T17:47:03.367Z,13.79
2023-04-14T17:49:30.640Z,13.81
2023-04-14T17:51:57.258Z,13.78
2023-04-14T17:54:23.708Z,13.81
2023-04-14T17:56:50.343Z,13.77
2023-04-14T17:59:17.631Z,13.54
2023-04-14T18:01:44.029Z,13.30
2023-04-14T18:04:10.824Z,13.06
2023-04-14T18:06:37.284Z,12.85
2023-04-14T18:09:03.917Z,12.82
2023-04-14T18:11:30.343Z,12.53
2023-04-14T18:13:58.014Z,12.40
2023-04-14T18:16:24.932Z,12.37
2023-04-14T18:18:51.488Z,12.29
2023-04-14T18:21:17.847Z,12.15
2023-04-14T18:23:44.189Z,12.05
2023-04-14T18:28:39.985Z,11.82
2023-04-14T18:31:06.529Z,11.83
2023-04-14T18:33:33.146Z,11.88
2023-04-14T18:36:00.501Z,11.74
2023-04-14T18:38:28.213Z,11.65
2023-04-14T18:41:01.110Z,11.55
2023-04-14T18:43:27.435Z,11.47
2023-04-14T18:45:53.806Z,11.44
2023-04-14T18:48:20.282Z,11.47
2023-04-14T18:50:46.663Z,11.37
2023-04-14T18:53:13.215Z,11.29
2023-04-14T18:55:44.987Z,11.33
2023-04-14T18:58:12.653Z,11.15
2023-04-14T19:00:39.503Z,11.14
2023-04-14T19:03:07.018Z,10.98
2023-04-14T19:05:35.057Z,10.95
2023-04-14T19:08:02.315Z,10.98
2023-04-14T19:10:29.207Z,10.95
2023-04-14T19:12:55.596Z,10.87
2023-04-14T19:15:21.911Z,10.90
2023-04-14T19:17:48.463Z,10.82
2023-04-14T19:20:15.256Z,10.74
2023-04-14T19:22:41.738Z,10.67
2023-04-14T19:25:08.551Z,10.59
2023-04-14T19:27:35.993Z,10.57
2023-04-14T19:30:04.020Z,10.53
2023-04-14T19:32:30.476Z,10.48
2023-04-14T19:34:57.394Z,10.42
2023-04-14T19:37:23.723Z,10.39
2023-04-14T19:39:50.338Z,10.30
2023-04-14T19:42:16.939Z,10.24
2023-04-14T19:44:43.319Z,10.21
2023-04-14T19:47:09.638Z,10.16
2023-04-14T19:49:36.083Z,10.06
2023-04-14T19:52:04.578Z,9.99
2023-04-14T19:54:31.265Z,9.82
2023-04-14T19:56:57.581Z,9.71
2023-04-14T19:59:23.916Z,9.60
2023-04-14T20:01:51.397Z,9.51
2023-04-14T20:04:18.401Z,9.43
2023-04-14T20:06:44.782Z,9.39
2023-04-14T20:09:11.102Z,9.26
2023-04-14T20:11:37.529Z,9.19
2023-04-14T20:14:04.363Z,9.12
2023-04-14T20:16:30.796Z,9.05
2023-04-14T20:18:57.408Z,8.97
2023-04-14T20:21:24.055Z,8.88
2023-04-14T20:23:50.383Z,8.83
2023-04-14T20:26:17.155Z,8.77
2023-04-14T20:28:43.673Z,8.67
2023-04-14T20:31:10.385Z,8.60
2023-04-14T20:33:36.897Z,8.55
2023-04-14T20:36:03.692Z,8.47
2023-04-14T20:38:30.149Z,8.43
2023-04-14T20:40:56.586Z,8.31
2023-04-14T20:43:23.106Z,8.20
2023-04-14T20:45:49.785Z,8.16
2023-04-14T20:48:16.577Z,8.15
2023-04-14T20:50:44.281Z,8.10
2023-04-14T20:53:10.712Z,8.05
2023-04-14T20:55:37.182Z,8.00
2023-04-14T20:58:03.912Z,8.01
2023-04-14T21:00:32.509Z,7.98
2023-04-14T21:03:00.902Z,7.95
2023-04-14T21:05:27.366Z,7.91
2023-04-14T21:07:53.758Z,7.96
2023-04-14T21:10:20.626Z,7.95
2023-04-14T21:15:25.022Z,7.94
2023-04-14T21:15:54.064Z,7.88
2023-04-14T21:18:19.896Z,7.87
2023-04-14T21:20:46.210Z,7.83
2023-04-14T21:23:12.590Z,7.79
2023-04-14T21:25:39.004Z,7.74
2023-04-14T21:28:05.551Z,7.73
2023-04-14T21:30:32.125Z,7.69
2023-04-14T21:32:59.089Z,7.71
2023-04-14T21:35:25.859Z,7.72
2023-04-14T21:37:52.273Z,7.84
2023-04-14T21:40:19.018Z,7.91
2023-04-14T21:42:45.732Z,7.96
2023-04-14T21:45:12.081Z,7.98
2023-04-14T21:47:38.486Z,8.07
2023-04-14T21:50:07.129Z,8.09
2023-04-14T21:52:33.488Z,8.18
2023-04-14T21:54:59.902Z,8.14
2023-04-14T21:57:44.523Z,8.26
2023-04-14T22:00:15.416Z,8.36
2023-04-14T22:02:42.902Z,8.33
2023-04-14T22:05:09.885Z,8.38
2023-04-14T22:07:36.380Z,8.50
2023-04-14T22:10:03.407Z,8.48
2023-04-14T22:12:35.674Z,8.46
2023-04-14T22:15:04.132Z,8.43
2023-04-14T22:17:31.045Z,8.48
2023-04-14T22:19:57.616Z,8.51
2023-04-14T22:22:24.283Z,8.54
2023-04-14T22:24:51.615Z,8.57
2023-04-14T22:27:17.967Z,8.52
2023-04-14T22:29:44.301Z,8.46
2023-04-14T22:32:10.662Z,8.51
2023-04-14T22:34:37.330Z,8.52
2023-04-14T22:37:03.737Z,8.45
2023-04-14T22:39:30.311Z,8.41
2023-04-14T22:41:56.618Z,8.44
2023-04-14T22:44:22.959Z,8.43
2023-04-14T22:46:49.259Z,8.40
2023-04-14T22:49:15.789Z,8.35
2023-04-14T22:51:42.097Z,8.30
2023-04-14T22:54:08.936Z,8.29
2023-04-14T22:56:36.974Z,8.32
2023-04-14T22:59:03.532Z,8.28
2023-04-14T23:01:30.322Z,8.16
2023-04-14T23:03:56.753Z,8.17
2023-04-14T23:06:24.029Z,8.19
2023-04-14T23:08:50.899Z,8.16
2023-04-14T23:11:20.760Z,8.07
2023-04-14T23:13:48.813Z,8.03
2023-04-14T23:16:19.583Z,7.99
2023-04-14T23:18:52.903Z,8.08
2023-04-14T23:21:22.938Z,8.05
2023-04-14T23:23:49.884Z,8.10
2023-04-14T23:26:17.225Z,8.05
2023-04-14T23:28:43.594Z,8.08
2023-04-14T23:31:09.984Z,8.00
2023-04-14T23:33:36.457Z,7.98
2023-04-14T23:36:02.827Z,7.95
2023-04-14T23:38:29.187Z,7.91
2023-04-14T23:40:58.754Z,7.86
2023-04-14T23:43:25.930Z,7.82
2023-04-14T23:45:52.490Z,7.75
2023-04-14T23:48:18.870Z,7.76
2023-04-14T23:51:00.628Z,7.74
2023-04-14T23:53:31.564Z,7.69
2023-04-14T23:55:58.139Z,7.70
2023-04-14T23:58:26.897Z,7.67
